KPHX/PHX METAR and TAF weather

Enter ICAO airport designator
Station Type Date Time Source
KPHX METAR 2021/01/16 02:51 UTC NOAA

KPHX 160251Z 00000KT 10SM CLR 20/M08 A3003 RMK AO2 SLP162 T02001083 58002


Station Type Date Time Source
KPHX Decoded METAR 2021/01/16 02:51 UTC NOAA

Phoenix, Phoenix Sky Harbor International Airport, AZ, United States (KPHX) 33-26-03N 112-03-04W 336M
Jan 15, 2021 - 09:51 PM EST / 2021.01.16 0251 UTC
Wind: Calm:0
Visibility: 10 mile(s):0
Sky conditions: clear
Temperature: 68.0 F (20.0 C)
Dew Point: 17.1 F (-8.3 C)
Relative Humidity: 13%
Pressure (altimeter): 30.03 in. Hg (1016 hPa)
Pressure tendency: 0.01 inches (0.2 hPa) lower than three hours ago
ob: KPHX 160251Z 00000KT 10SM CLR 20/M08 A3003 RMK AO2 SLP162 T02001083 58002
cycle: 3

Station Type Date Time Source
KPHX TAF 2021/01/16 03:40 UTC NOAA

TAF
AMD KPHX 160238Z 1603/1706 VRB03KT P6SM FEW250
FM160400 09006KT P6SM FEW250
FM162000 26006KT P6SM FEW250
FM170400 09006KT P6SM FEW250

Example: see airport list